createdAt,value
2023-01-30T00:04:40.411Z,0.75
2023-01-30T00:09:43.173Z,0.76
2023-01-30T00:14:45.966Z,0.76
2023-01-30T00:19:48.720Z,0.77
2023-01-30T00:24:51.611Z,0.76
2023-01-30T00:30:02.396Z,0.78
2023-01-30T00:35:07.277Z,0.77
2023-01-30T00:40:10.975Z,0.78
2023-01-30T00:45:32.339Z,0.80
2023-01-30T00:50:42.615Z,0.80
2023-01-30T00:55:46.114Z,0.79
2023-01-30T01:00:49.950Z,0.78
2023-01-30T01:05:52.733Z,0.76
2023-01-30T01:10:55.783Z,0.77
2023-01-30T01:15:58.566Z,0.75
2023-01-30T01:21:01.479Z,0.74
2023-01-30T01:26:04.742Z,0.75
2023-01-30T01:31:10.034Z,0.74
2023-01-30T01:36:20.065Z,0.73
2023-01-30T01:41:32.461Z,0.72
2023-01-30T01:46:35.155Z,0.71
2023-01-30T01:51:42.941Z,0.69
2023-01-30T01:56:48.384Z,0.70
2023-01-30T02:01:54.405Z,0.71
2023-01-30T02:06:57.367Z,0.70
2023-01-30T02:12:04.222Z,0.69
2023-01-30T02:17:07.064Z,0.66
2023-01-30T02:22:21.582Z,0.64
2023-01-30T02:27:46.392Z,0.63
2023-01-30T02:33:13.685Z,0.62
2023-01-30T02:38:35.421Z,0.60
2023-01-30T02:43:44.210Z,0.61
2023-01-30T02:48:52.677Z,0.63
2023-01-30T02:53:56.060Z,0.60
2023-01-30T02:59:06.141Z,0.58
2023-01-30T03:04:26.699Z,0.57
2023-01-30T03:09:50.718Z,0.57
2023-01-30T03:15:04.353Z,0.59
2023-01-30T03:20:08.444Z,0.61
2023-01-30T03:25:18.343Z,0.63
2023-01-30T03:30:22.167Z,0.64
2023-01-30T03:35:25.134Z,0.65
2023-01-30T03:40:27.976Z,0.70
2023-01-30T03:45:30.788Z,0.70
2023-01-30T03:50:33.584Z,0.67
2023-01-30T03:55:36.374Z,0.64
2023-01-30T04:00:39.148Z,0.64
2023-01-30T04:05:45.024Z,0.62
2023-01-30T04:10:47.803Z,0.62
2023-01-30T04:15:50.715Z,0.61
2023-01-30T04:20:53.489Z,0.60
2023-01-30T04:25:56.249Z,0.58
2023-01-30T04:30:59.157Z,0.57
2023-01-30T04:36:04.129Z,0.57
2023-01-30T04:41:07.173Z,0.55
2023-01-30T04:46:09.929Z,0.48
2023-01-30T04:51:12.881Z,0.41
2023-01-30T04:56:15.700Z,0.35
2023-01-30T05:01:31.676Z,0.27
2023-01-30T05:06:36.670Z,0.20
2023-01-30T05:11:39.511Z,0.17
2023-01-30T05:16:42.272Z,0.16
2023-01-30T05:21:45.060Z,0.13
2023-01-30T05:26:47.912Z,0.11
2023-01-30T05:31:50.728Z,0.06
2023-01-30T05:36:53.524Z,0.02
2023-01-30T05:41:56.331Z,0.03
2023-01-30T05:46:59.157Z,-0.01
2023-01-30T05:52:01.980Z,-0.04
2023-01-30T05:57:04.951Z,-0.04
2023-01-30T06:02:07.777Z,-0.05
2023-01-30T06:07:10.576Z,-0.06
2023-01-30T06:12:13.306Z,-0.07
2023-01-30T06:17:16.167Z,-0.07
2023-01-30T06:22:18.955Z,-0.10
2023-01-30T06:27:21.724Z,-0.09
2023-01-30T06:32:24.522Z,-0.10
2023-01-30T06:37:27.370Z,-0.11
2023-01-30T06:42:30.170Z,-0.11
2023-01-30T06:47:33.028Z,-0.12
2023-01-30T06:52:40.086Z,-0.12
2023-01-30T06:57:43.467Z,-0.09
2023-01-30T07:02:47.521Z,-0.07
2023-01-30T07:07:50.380Z,-0.04
2023-01-30T07:12:53.774Z,-0.02
2023-01-30T07:17:56.741Z,-0.01
2023-01-30T07:23:03.001Z,0.03
2023-01-30T07:28:05.841Z,0.03
2023-01-30T07:33:08.947Z,0.05
2023-01-30T07:38:11.788Z,0.05
2023-01-30T07:43:14.656Z,-0.01
2023-01-30T07:48:22.085Z,-0.05
2023-01-30T07:53:25.023Z,-0.05
2023-01-30T07:58:29.939Z,0.02
2023-01-30T08:03:34.544Z,0.17
2023-01-30T08:08:37.475Z,0.32
2023-01-30T08:13:40.219Z,0.49
2023-01-30T08:18:43.079Z,0.57
2023-01-30T08:23:45.884Z,0.66
2023-01-30T08:28:49.234Z,0.69
2023-01-30T08:33:52.058Z,0.77
2023-01-30T08:38:54.952Z,0.79
2023-01-30T08:43:57.676Z,0.77
2023-01-30T08:49:00.455Z,0.79
2023-01-30T08:54:03.193Z,0.76
2023-01-30T08:59:06.153Z,0.78
2023-01-30T09:04:08.999Z,0.82
2023-01-30T09:09:11.834Z,0.79
2023-01-30T09:14:20.246Z,0.66
2023-01-30T09:19:24.488Z,0.56
2023-01-30T09:24:28.180Z,0.51
2023-01-30T09:29:31.308Z,0.49
2023-01-30T09:34:34.229Z,0.48
2023-01-30T09:39:37.147Z,0.45
2023-01-30T09:45:02.110Z,0.44
2023-01-30T09:50:21.868Z,0.49
2023-01-30T09:55:30.068Z,0.53
2023-01-30T10:00:37.359Z,0.56
2023-01-30T10:05:50.260Z,0.61
2023-01-30T10:11:09.900Z,0.58
2023-01-30T10:16:26.037Z,0.60
2023-01-30T10:21:47.825Z,0.67
2023-01-30T10:26:51.472Z,0.73
2023-01-30T10:32:05.192Z,0.75
2023-01-30T10:37:14.025Z,0.77
2023-01-30T10:42:39.311Z,0.94
2023-01-30T10:47:59.885Z,1.02
2023-01-30T10:53:35.630Z,1.07
2023-01-30T10:58:57.331Z,1.28
2023-01-30T11:04:04.579Z,1.36
2023-01-30T11:09:09.114Z,1.44
2023-01-30T11:14:12.932Z,1.53
2023-01-30T11:19:21.527Z,1.54
2023-01-30T11:24:31.972Z,1.54
2023-01-30T11:29:37.543Z,1.53
2023-01-30T11:35:01.081Z,1.55
2023-01-30T11:40:31.400Z,1.58
2023-01-30T11:45:46.656Z,1.64
2023-01-30T11:51:01.478Z,1.67
2023-01-30T11:56:20.400Z,1.72
2023-01-30T12:01:28.525Z,1.76
2023-01-30T12:06:37.059Z,1.76
2023-01-30T12:11:42.581Z,1.95
2023-01-30T12:16:54.397Z,2.08
2023-01-30T12:22:26.409Z,2.04
2023-01-30T12:28:11.128Z,2.08
2023-01-30T12:38:47.468Z,2.28
2023-01-30T12:44:23.343Z,2.32
2023-01-30T12:49:32.324Z,2.35
2023-01-30T12:54:54.880Z,2.40
2023-01-30T13:00:09.671Z,2.43
2023-01-30T13:05:41.986Z,2.45
2023-01-30T13:11:29.201Z,2.48
2023-01-30T13:17:00.980Z,2.44
2023-01-30T13:22:19.837Z,2.39
2023-01-30T13:27:25.248Z,2.43
2023-01-30T13:32:41.795Z,2.39
2023-01-30T13:37:49.053Z,2.33
2023-01-30T13:43:07.214Z,2.22
2023-01-30T13:48:35.197Z,2.13
2023-01-30T13:53:40.015Z,2.07
2023-01-30T13:58:56.502Z,2.09
2023-01-30T14:04:38.817Z,2.06
2023-01-30T14:09:45.997Z,2.03
2023-01-30T14:14:58.206Z,2.02
2023-01-30T14:20:20.177Z,2.06
2023-01-30T14:25:22.960Z,2.06
2023-01-30T14:30:31.776Z,2.02
2023-01-30T14:35:34.595Z,1.95
2023-01-30T14:41:00.420Z,1.89
2023-01-30T14:46:09.031Z,1.85
2023-01-30T14:51:31.190Z,1.79
2023-01-30T14:56:59.116Z,1.72
2023-01-30T15:02:02.004Z,1.64
2023-01-30T15:07:17.918Z,1.57
2023-01-30T15:12:20.731Z,1.52
2023-01-30T15:17:39.179Z,1.47
2023-01-30T15:23:07.956Z,1.45
2023-01-30T15:28:27.634Z,1.47
2023-01-30T15:33:32.142Z,1.50
2023-01-30T15:38:35.451Z,1.53
2023-01-30T15:44:21.769Z,1.57
2023-01-30T15:50:01.727Z,1.61
2023-01-30T15:55:05.391Z,1.61
2023-01-30T16:00:17.661Z,1.62
2023-01-30T16:05:25.348Z,1.62
2023-01-30T16:10:30.619Z,1.62
2023-01-30T16:15:40.961Z,1.63
2023-01-30T16:21:01.735Z,1.60
2023-01-30T16:26:08.195Z,1.56
2023-01-30T16:31:12.062Z,1.53
2023-01-30T16:36:20.711Z,1.56
2023-01-30T16:41:44.942Z,1.57
2023-01-30T16:46:49.125Z,1.58
2023-01-30T16:52:02.427Z,1.61
2023-01-30T16:57:05.499Z,1.63
2023-01-30T17:02:26.364Z,1.62
2023-01-30T17:07:36.397Z,1.63
2023-01-30T17:12:43.486Z,1.66
2023-01-30T17:17:46.742Z,1.67
2023-01-30T17:22:53.950Z,1.69
2023-01-30T17:27:57.501Z,1.70
2023-01-30T17:33:00.428Z,1.69
2023-01-30T17:38:06.011Z,1.67
2023-01-30T17:43:11.515Z,1.67
2023-01-30T17:48:14.472Z,1.68
2023-01-30T17:53:17.736Z,1.70
2023-01-30T17:58:21.871Z,1.68
2023-01-30T18:03:25.425Z,1.65
2023-01-30T18:08:28.214Z,1.65
2023-01-30T18:13:31.081Z,1.67
2023-01-30T18:18:34.119Z,1.66
2023-01-30T18:23:38.677Z,1.67
2023-01-30T18:28:45.447Z,1.68
2023-01-30T18:33:48.318Z,1.71
2023-01-30T18:38:51.937Z,1.73
2023-01-30T18:43:56.856Z,1.75
2023-01-30T18:48:59.768Z,1.77
2023-01-30T18:54:02.903Z,1.80
2023-01-30T18:59:07.180Z,1.79
2023-01-30T19:04:11.551Z,1.81
2023-01-30T19:09:16.249Z,1.82
2023-01-30T19:14:20.954Z,1.82
2023-01-30T19:19:23.763Z,1.81
2023-01-30T19:24:26.752Z,1.79
2023-01-30T19:29:29.604Z,1.75
2023-01-30T19:34:32.431Z,1.73
2023-01-30T19:39:35.443Z,1.71
2023-01-30T19:44:41.108Z,1.69
2023-01-30T19:49:44.066Z,1.68
2023-01-30T19:54:47.565Z,1.65
2023-01-30T19:59:50.462Z,1.63
2023-01-30T20:04:53.377Z,1.64
2023-01-30T20:09:56.674Z,1.63
2023-01-30T20:14:59.607Z,1.62
2023-01-30T20:20:03.254Z,1.62
2023-01-30T20:25:07.178Z,1.63
2023-01-30T20:30:11.032Z,1.62
2023-01-30T20:35:14.078Z,1.61
2023-01-30T20:40:19.571Z,1.59
2023-01-30T20:45:23.444Z,1.59
2023-01-30T20:50:27.707Z,1.58
2023-01-30T20:55:30.583Z,1.59
2023-01-30T21:00:33.461Z,1.62
2023-01-30T21:05:36.253Z,1.64
2023-01-30T21:10:46.707Z,1.67
2023-01-30T21:15:59.627Z,1.69
2023-01-30T21:21:05.976Z,1.70
2023-01-30T21:26:13.176Z,1.73
2023-01-30T21:31:22.589Z,1.74
2023-01-30T21:36:26.459Z,1.76
2023-01-30T21:41:56.321Z,1.78
2023-01-30T21:46:59.602Z,1.80
2023-01-30T21:52:02.365Z,1.83
2023-01-30T21:57:05.154Z,1.85
2023-01-30T22:02:09.909Z,1.87
2023-01-30T22:07:12.769Z,1.88
2023-01-30T22:12:15.576Z,1.89
2023-01-30T22:17:18.476Z,1.87
2023-01-30T22:22:25.281Z,1.90
2023-01-30T22:27:28.082Z,1.94
2023-01-30T22:32:30.882Z,1.97
2023-01-30T22:37:33.685Z,1.98
2023-01-30T22:42:36.439Z,1.97
2023-01-30T22:47:39.507Z,1.98
2023-01-30T22:52:42.420Z,1.97
2023-01-30T22:57:45.205Z,1.91
2023-01-30T23:02:48.168Z,1.85
2023-01-30T23:07:51.560Z,1.76
2023-01-30T23:13:06.452Z,1.67
2023-01-30T23:18:32.609Z,1.60
2023-01-30T23:23:35.593Z,1.55
2023-01-30T23:28:39.058Z,1.51
2023-01-30T23:33:42.485Z,1.50
2023-01-30T23:38:48.929Z,1.47
2023-01-30T23:43:52.336Z,1.44
2023-01-30T23:48:58.524Z,1.41
2023-01-30T23:54:05.133Z,1.40
2023-01-30T23:59:08.445Z,1.34
